sensor_id;sensor_type;location;lat;lon;timestamp;pressure;altitude;pressure_sealevel;temperature;humidity
42951;BME280;28592;51.064;17.192;2022-09-09T00:04:37;99814.86;;;16.81;100.00
42951;BME280;28592;51.064;17.192;2022-09-09T00:13:20;99825.77;;;16.65;100.00
42951;BME280;28592;51.064;17.192;2022-09-09T00:16:15;99819.11;;;16.61;100.00
42951;BME280;28592;51.064;17.192;2022-09-09T00:19:15;99816.44;;;16.61;100.00
42951;BME280;28592;51.064;17.192;2022-09-09T00:27:56;99821.50;;;16.56;100.00
42951;BME280;28592;51.064;17.192;2022-09-09T00:30:41;99824.65;;;16.45;100.00
42951;BME280;28592;51.064;17.192;2022-09-09T00:33:29;99821.13;;;16.45;100.00
42951;BME280;28592;51.064;17.192;2022-09-09T00:36:18;99826.16;;;16.40;100.00
42951;BME280;28592;51.064;17.192;2022-09-09T00:39:24;99820.38;;;16.36;100.00
42951;BME280;28592;51.064;17.192;2022-09-09T00:48:09;99820.73;;;16.33;100.00
42951;BME280;28592;51.064;17.192;2022-09-09T00:51:13;99820.45;;;16.28;100.00
42951;BME280;28592;51.064;17.192;2022-09-09T00:54:05;99820.63;;;16.27;100.00
42951;BME280;28592;51.064;17.192;2022-09-09T00:57:02;99820.81;;;16.25;100.00
42951;BME280;28592;51.064;17.192;2022-09-09T00:59:52;99823.48;;;16.25;100.00
42951;BME280;28592;51.064;17.192;2022-09-09T01:05:50;99822.53;;;16.18;100.00
42951;BME280;28592;51.064;17.192;2022-09-09T01:23:37;99846.75;;;16.02;100.00
42951;BME280;28592;51.064;17.192;2022-09-09T01:26:28;99838.91;;;16.01;100.00
42951;BME280;28592;51.064;17.192;2022-09-09T01:29:17;99842.67;;;15.92;100.00
42951;BME280;28592;51.064;17.192;2022-09-09T01:35:02;99832.88;;;15.84;100.00
42951;BME280;28592;51.064;17.192;2022-09-09T01:37:48;99841.61;;;15.78;100.00
42951;BME280;28592;51.064;17.192;2022-09-09T01:40:33;99845.17;;;15.70;100.00
42951;BME280;28592;51.064;17.192;2022-09-09T01:43:22;99843.31;;;15.71;100.00
42951;BME280;28592;51.064;17.192;2022-09-09T01:46:09;99851.41;;;15.63;100.00
42951;BME280;28592;51.064;17.192;2022-09-09T01:48:57;99855.25;;;15.60;100.00
42951;BME280;28592;51.064;17.192;2022-09-09T01:51:47;99858.45;;;15.56;100.00
42951;BME280;28592;51.064;17.192;2022-09-09T01:54:34;99854.66;;;15.50;100.00
42951;BME280;28592;51.064;17.192;2022-09-09T01:57:24;99857.02;;;15.45;100.00
42951;BME280;28592;51.064;17.192;2022-09-09T02:00:13;99860.22;;;15.41;100.00
42951;BME280;28592;51.064;17.192;2022-09-09T02:08:56;99863.24;;;15.30;100.00
42951;BME280;28592;51.064;17.192;2022-09-09T02:11:44;99857.91;;;15.30;100.00
42951;BME280;28592;51.064;17.192;2022-09-09T02:14:37;99861.95;;;15.26;100.00
42951;BME280;28592;51.064;17.192;2022-09-09T02:17:31;99874.45;;;15.25;100.00
42951;BME280;28592;51.064;17.192;2022-09-09T02:20:20;99863.95;;;15.24;100.00
42951;BME280;28592;51.064;17.192;2022-09-09T02:23:07;99874.34;;;15.19;100.00
42951;BME280;28592;51.064;17.192;2022-09-09T02:25:55;99872.66;;;15.18;100.00
42951;BME280;28592;51.064;17.192;2022-09-09T02:28:42;99872.66;;;15.18;100.00
42951;BME280;28592;51.064;17.192;2022-09-09T02:31:28;99870.68;;;15.12;100.00
42951;BME280;28592;51.064;17.192;2022-09-09T02:34:14;99870.68;;;15.12;100.00
42951;BME280;28592;51.064;17.192;2022-09-09T02:37:03;99866.39;;;15.03;100.00
42951;BME280;28592;51.064;17.192;2022-09-09T02:39:49;99872.91;;;15.00;100.00
42951;BME280;28592;51.064;17.192;2022-09-09T02:45:41;99876.27;;;14.94;100.00
42951;BME280;28592;51.064;17.192;2022-09-09T02:51:46;99879.63;;;14.88;100.00
42951;BME280;28592;51.064;17.192;2022-09-09T02:54:38;99882.13;;;14.90;100.00
42951;BME280;28592;51.064;17.192;2022-09-09T02:57:30;99882.81;;;14.84;100.00
42951;BME280;28592;51.064;17.192;2022-09-09T03:03:13;99886.00;;;14.79;100.00
42951;BME280;28592;51.064;17.192;2022-09-09T03:06:12;99891.33;;;14.79;100.00
42951;BME280;28592;51.064;17.192;2022-09-09T03:09:05;99888.84;;;14.78;100.00
42951;BME280;28592;51.064;17.192;2022-09-09T03:11:57;99897.82;;;14.77;100.00
42951;BME280;28592;51.064;17.192;2022-09-09T03:14:43;99898.16;;;14.74;100.00
42951;BME280;28592;51.064;17.192;2022-09-09T03:17:31;99887.66;;;14.72;100.00
42951;BME280;28592;51.064;17.192;2022-09-09T03:20:17;99897.36;;;14.65;100.00
42951;BME280;28592;51.064;17.192;2022-09-09T03:23:02;99902.87;;;14.64;100.00
42951;BME280;28592;51.064;17.192;2022-09-09T03:25:49;99909.22;;;14.63;100.00
42951;BME280;28592;51.064;17.192;2022-09-09T03:28:36;99910.20;;;14.62;100.00
42951;BME280;28592;51.064;17.192;2022-09-09T03:31:24;99896.87;;;14.54;100.00
42951;BME280;28592;51.064;17.192;2022-09-09T03:34:10;99901.39;;;14.53;100.00
42951;BME280;28592;51.064;17.192;2022-09-09T03:36:56;99899.54;;;14.54;100.00
42951;BME280;28592;51.064;17.192;2022-09-09T03:39:41;99904.06;;;14.53;100.00
42951;BME280;28592;51.064;17.192;2022-09-09T03:42:27;99909.73;;;14.50;100.00
42951;BME280;28592;51.064;17.192;2022-09-09T03:45:12;99906.22;;;14.50;100.00
42951;BME280;28592;51.064;17.192;2022-09-09T03:47:58;99908.72;;;14.43;100.00
42951;BME280;28592;51.064;17.192;2022-09-09T03:50:50;99914.55;;;14.39;100.00
42951;BME280;28592;51.064;17.192;2022-09-09T03:53:36;99912.39;;;14.34;100.00
42951;BME280;28592;51.064;17.192;2022-09-09T03:56:22;99908.75;;;14.35;100.00
42951;BME280;28592;51.064;17.192;2022-09-09T03:59:08;99909.90;;;14.33;100.00
42951;BME280;28592;51.064;17.192;2022-09-09T04:01:56;99914.25;;;14.26;100.00
42951;BME280;28592;51.064;17.192;2022-09-09T04:04:46;99917.92;;;14.25;100.00
42951;BME280;28592;51.064;17.192;2022-09-09T04:07:35;99913.53;;;14.15;100.00
42951;BME280;28592;51.064;17.192;2022-09-09T04:10:20;99920.04;;;14.13;100.00
42951;BME280;28592;51.064;17.192;2022-09-09T04:13:07;99915.05;;;14.10;100.00
42951;BME280;28592;51.064;17.192;2022-09-09T04:15:58;99913.22;;;14.10;100.00
42951;BME280;28592;51.064;17.192;2022-09-09T04:18:50;99918.55;;;14.10;100.00
42951;BME280;28592;51.064;17.192;2022-09-09T04:21:35;99920.55;;;14.17;100.00
42951;BME280;28592;51.064;17.192;2022-09-09T04:24:27;99921.52;;;14.15;100.00
42951;BME280;28592;51.064;17.192;2022-09-09T04:27:19;99923.52;;;14.22;100.00
42951;BME280;28592;51.064;17.192;2022-09-09T04:30:05;99923.52;;;14.22;100.00
42951;BME280;28592;51.064;17.192;2022-09-09T04:32:52;99929.86;;;14.21;100.00
42951;BME280;28592;51.064;17.192;2022-09-09T04:35:38;99929.86;;;14.21;100.00
42951;BME280;28592;51.064;17.192;2022-09-09T04:38:24;99929.02;;;14.20;100.00
42951;BME280;28592;51.064;17.192;2022-09-09T04:41:11;99929.86;;;14.21;100.00
42951;BME280;28592;51.064;17.192;2022-09-09T04:43:58;99926.05;;;14.23;100.00
42951;BME280;28592;51.064;17.192;2022-09-09T04:46:48;99928.41;;;14.26;100.00
42951;BME280;28592;51.064;17.192;2022-09-09T04:49:34;99931.39;;;14.31;100.00
42951;BME280;28592;51.064;17.192;2022-09-09T04:52:19;99927.91;;;14.31;100.00
42951;BME280;28592;51.064;17.192;2022-09-09T04:55:06;99933.05;;;14.40;100.00
42951;BME280;28592;51.064;17.192;2022-09-09T04:57:52;99942.70;;;14.49;100.00
42951;BME280;28592;51.064;17.192;2022-09-09T05:00:38;99936.69;;;14.55;100.00
42951;BME280;28592;51.064;17.192;2022-09-09T05:03:29;99935.04;;;14.54;100.00
42951;BME280;28592;51.064;17.192;2022-09-09T05:06:17;99932.20;;;14.72;100.00
42951;BME280;28592;51.064;17.192;2022-09-09T05:09:03;99936.34;;;14.82;100.00
42951;BME280;28592;51.064;17.192;2022-09-09T05:11:48;99934.66;;;14.81;100.00
42951;BME280;28592;51.064;17.192;2022-09-09T05:14:34;99947.80;;;14.91;100.00
42951;BME280;28592;51.064;17.192;2022-09-09T05:17:22;99946.78;;;15.00;100.00
42951;BME280;28592;51.064;17.192;2022-09-09T05:20:09;99949.09;;;15.11;100.00
42951;BME280;28592;51.064;17.192;2022-09-09T05:22:55;99948.72;;;15.22;100.00
42951;BME280;28592;51.064;17.192;2022-09-09T05:25:42;99947.34;;;15.34;100.00
42951;BME280;28592;51.064;17.192;2022-09-09T05:28:28;99947.80;;;15.45;100.00
42951;BME280;28592;51.064;17.192;2022-09-09T05:31:16;99959.93;;;15.56;100.00
42951;BME280;28592;51.064;17.192;2022-09-09T05:34:02;99960.32;;;15.75;100.00
42951;BME280;28592;51.064;17.192;2022-09-09T05:36:48;99963.80;;;15.84;100.00
42951;BME280;28592;51.064;17.192;2022-09-09T05:39:34;99955.95;;;15.83;100.00
42951;BME280;28592;51.064;17.192;2022-09-09T05:42:22;99972.14;;;16.12;100.00
42951;BME280;28592;51.064;17.192;2022-09-09T05:45:08;99971.25;;;16.19;100.00
42951;BME280;28592;51.064;17.192;2022-09-09T05:47:57;99972.00;;;16.28;100.00
42951;BME280;28592;51.064;17.192;2022-09-09T05:50:53;99971.05;;;16.43;100.00
42951;BME280;28592;51.064;17.192;2022-09-09T05:53:39;99972.97;;;16.57;100.00
42951;BME280;28592;51.064;17.192;2022-09-09T05:56:26;99967.81;;;16.70;100.00
42951;BME280;28592;51.064;17.192;2022-09-09T05:59:12;99968.84;;;16.69;100.00
42951;BME280;28592;51.064;17.192;2022-09-09T06:01:58;99965.51;;;16.67;100.00
42951;BME280;28592;51.064;17.192;2022-09-09T06:04:43;99949.89;;;16.56;100.00
42951;BME280;28592;51.064;17.192;2022-09-09T06:07:29;99955.05;;;16.58;100.00
42951;BME280;28592;51.064;17.192;2022-09-09T06:10:15;99977.43;;;16.79;100.00
42951;BME280;28592;51.064;17.192;2022-09-09T06:13:00;99970.25;;;16.94;100.00
42951;BME280;28592;51.064;17.192;2022-09-09T06:15:52;99966.39;;;17.11;100.00
42951;BME280;28592;51.064;17.192;2022-09-09T06:18:38;99961.61;;;17.21;100.00
42951;BME280;28592;51.064;17.192;2022-09-09T06:21:26;99959.92;;;17.20;100.00
42951;BME280;28592;51.064;17.192;2022-09-09T06:24:12;99945.98;;;17.54;100.00
42951;BME280;28592;51.064;17.192;2022-09-09T06:27:02;99955.66;;;17.70;100.00
42951;BME280;28592;51.064;17.192;2022-09-09T06:29:47;99959.36;;;17.69;100.00
42951;BME280;28592;51.064;17.192;2022-09-09T06:32:33;99960.09;;;17.98;100.00
42951;BME280;28592;51.064;17.192;2022-09-09T06:35:21;99959.28;;;17.98;100.00
42951;BME280;28592;51.064;17.192;2022-09-09T06:38:07;99958.71;;;18.23;100.00
42951;BME280;28592;51.064;17.192;2022-09-09T06:40:54;99959.57;;;18.45;100.00
42951;BME280;28592;51.064;17.192;2022-09-09T06:43:40;99966.20;;;18.49;100.00
42951;BME280;28592;51.064;17.192;2022-09-09T06:46:28;99973.80;;;18.66;100.00
42951;BME280;28592;51.064;17.192;2022-09-09T06:49:15;99973.98;;;18.44;100.00
42951;BME280;28592;51.064;17.192;2022-09-09T06:52:01;99965.94;;;18.44;100.00
42951;BME280;28592;51.064;17.192;2022-09-09T06:54:46;99968.63;;;18.44;100.00
42951;BME280;28592;51.064;17.192;2022-09-09T06:57:32;99967.20;;;18.69;100.00
42951;BME280;28592;51.064;17.192;2022-09-09T07:00:17;99967.78;;;18.92;100.00
42951;BME280;28592;51.064;17.192;2022-09-09T07:03:03;99968.79;;;18.91;100.00
42951;BME280;28592;51.064;17.192;2022-09-09T07:05:56;99971.85;;;19.15;100.00
42951;BME280;28592;51.064;17.192;2022-09-09T07:08:41;99971.05;;;19.15;100.00
42951;BME280;28592;51.064;17.192;2022-09-09T07:11:29;99974.66;;;19.01;100.00
42951;BME280;28592;51.064;17.192;2022-09-09T07:14:15;99973.02;;;19.00;100.00
42951;BME280;28592;51.064;17.192;2022-09-09T07:17:01;99985.61;;;19.27;100.00
42951;BME280;28592;51.064;17.192;2022-09-09T07:19:46;99982.25;;;19.25;100.00
42951;BME280;28592;51.064;17.192;2022-09-09T07:22:33;99987.90;;;19.30;100.00
42951;BME280;28592;51.064;17.192;2022-09-09T07:25:18;99982.52;;;19.30;100.00
42951;BME280;28592;51.064;17.192;2022-09-09T07:28:06;99982.52;;;19.30;100.00
42951;BME280;28592;51.064;17.192;2022-09-09T07:30:57;99985.91;;;19.45;100.00
42951;BME280;28592;51.064;17.192;2022-09-09T07:33:46;99984.06;;;19.46;100.00
42951;BME280;28592;51.064;17.192;2022-09-09T07:36:35;99975.69;;;19.68;100.00
42951;BME280;28592;51.064;17.192;2022-09-09T07:39:23;99967.28;;;19.91;100.00
42951;BME280;28592;51.064;17.192;2022-09-09T07:42:09;99981.41;;;20.12;100.00
42951;BME280;28592;51.064;17.192;2022-09-09T07:44:56;99970.65;;;20.12;100.00
42951;BME280;28592;51.064;17.192;2022-09-09T07:47:42;99990.44;;;19.85;100.00
42951;BME280;28592;51.064;17.192;2022-09-09T07:50:28;99985.06;;;19.85;100.00
42951;BME280;28592;51.064;17.192;2022-09-09T07:53:13;100003.08;;;19.91;100.00
42951;BME280;28592;51.064;17.192;2022-09-09T07:56:05;99993.33;;;19.90;100.00
42951;BME280;28592;51.064;17.192;2022-09-09T07:58:52;100001.46;;;20.03;100.00
42951;BME280;28592;51.064;17.192;2022-09-09T08:01:43;99996.59;;;20.26;100.00
42951;BME280;28592;51.064;17.192;2022-09-09T08:04:29;99994.91;;;20.25;100.00
42951;BME280;28592;51.064;17.192;2022-09-09T08:07:15;100000.73;;;20.42;100.00
42951;BME280;28592;51.064;17.192;2022-09-09T08:10:02;100003.70;;;21.06;100.00
42951;BME280;28592;51.064;17.192;2022-09-09T08:12:48;100009.09;;;21.06;100.00
42951;BME280;28592;51.064;17.192;2022-09-09T08:15:33;99990.97;;;21.45;100.00
42951;BME280;28592;51.064;17.192;2022-09-09T08:18:22;99993.94;;;21.05;100.00
42951;BME280;28592;51.064;17.192;2022-09-09T08:21:10;99985.39;;;21.27;100.00
42951;BME280;28592;51.064;17.192;2022-09-09T08:24:01;99983.32;;;21.36;100.00
42951;BME280;28592;51.064;17.192;2022-09-09T08:26:48;99993.19;;;21.61;100.00
42951;BME280;28592;51.064;17.192;2022-09-09T08:29:34;99988.84;;;21.60;100.00
42951;BME280;28592;51.064;17.192;2022-09-09T08:32:19;99983.39;;;21.80;100.00
42951;BME280;28592;51.064;17.192;2022-09-09T08:35:05;99985.42;;;21.91;100.00
42951;BME280;28592;51.064;17.192;2022-09-09T08:37:54;99980.14;;;22.09;100.00
42951;BME280;28592;51.064;17.192;2022-09-09T08:40:43;99974.80;;;22.33;100.00
42951;BME280;28592;51.064;17.192;2022-09-09T08:43:34;99978.52;;;22.32;100.00
42951;BME280;28592;51.064;17.192;2022-09-09T08:52:21;99991.70;;;23.27;99.94
42951;BME280;28592;51.064;17.192;2022-09-09T08:58:19;99989.45;;;22.75;95.84
42951;BME280;28592;51.064;17.192;2022-09-09T09:12:58;99987.42;;;23.56;95.83
42951;BME280;28592;51.064;17.192;2022-09-09T09:15:52;99992.14;;;23.00;91.60
42951;BME280;28592;51.064;17.192;2022-09-09T09:18:38;99997.33;;;23.26;95.46
42951;BME280;28592;51.064;17.192;2022-09-09T09:21:34;99995.63;;;23.31;96.18
42951;BME280;28592;51.064;17.192;2022-09-09T09:24:22;99990.67;;;23.64;94.25
42951;BME280;28592;51.064;17.192;2022-09-09T09:27:16;99992.63;;;23.75;90.28
42951;BME280;28592;51.064;17.192;2022-09-09T09:30:14;99986.37;;;23.75;90.30
42951;BME280;28592;51.064;17.192;2022-09-09T09:33:05;99993.68;;;23.14;86.54
42951;BME280;28592;51.064;17.192;2022-09-09T09:35:53;100002.29;;;23.04;86.88
42951;BME280;28592;51.064;17.192;2022-09-09T09:38:38;100001.51;;;23.22;86.31
42951;BME280;28592;51.064;17.192;2022-09-09T09:41:31;99995.78;;;22.87;83.55
42951;BME280;28592;51.064;17.192;2022-09-09T09:44:31;99998.48;;;22.87;83.43
42951;BME280;28592;51.064;17.192;2022-09-09T09:47:17;99996.42;;;22.27;83.78
42951;BME280;28592;51.064;17.192;2022-09-09T09:50:03;99989.39;;;22.57;86.53
42951;BME280;28592;51.064;17.192;2022-09-09T09:53:02;99999.05;;;22.71;88.53
42951;BME280;28592;51.064;17.192;2022-09-09T09:55:55;99989.89;;;22.72;87.36
42951;BME280;28592;51.064;17.192;2022-09-09T09:58:50;99996.13;;;22.73;87.32
42951;BME280;28592;51.064;17.192;2022-09-09T10:01:36;99998.93;;;22.84;89.51
42951;BME280;28592;51.064;17.192;2022-09-09T10:04:22;99991.05;;;22.83;89.57
42951;BME280;28592;51.064;17.192;2022-09-09T10:07:20;100002.45;;;23.09;90.62
42951;BME280;28592;51.064;17.192;2022-09-09T10:10:22;99996.67;;;23.84;90.39
42951;BME280;28592;51.064;17.192;2022-09-09T10:13:11;99986.08;;;23.83;90.47
42951;BME280;28592;51.064;17.192;2022-09-09T10:19:05;99993.50;;;24.05;85.56
42951;BME280;28592;51.064;17.192;2022-09-09T10:28:01;99994.37;;;24.59;84.92
42951;BME280;28592;51.064;17.192;2022-09-09T10:33:49;100001.70;;;23.81;81.87
42951;BME280;28592;51.064;17.192;2022-09-09T10:36:42;99991.83;;;24.04;81.74
42951;BME280;28592;51.064;17.192;2022-09-09T10:39:37;99984.77;;;24.03;81.90
42951;BME280;28592;51.064;17.192;2022-09-09T10:42:31;99995.02;;;24.72;77.46
42951;BME280;28592;51.064;17.192;2022-09-09T10:51:33;99983.25;;;24.37;79.28
42951;BME280;28592;51.064;17.192;2022-09-09T10:57:25;99977.98;;;24.12;74.24
42951;BME280;28592;51.064;17.192;2022-09-09T11:03:24;99972.81;;;23.93;76.28
42951;BME280;28592;51.064;17.192;2022-09-09T11:06:07;99974.03;;;23.97;77.72
42951;BME280;28592;51.064;17.192;2022-09-09T11:08:57;99990.67;;;23.64;75.12
42951;BME280;28592;51.064;17.192;2022-09-09T11:11:55;99984.42;;;23.64;75.16
42951;BME280;28592;51.064;17.192;2022-09-09T11:14:46;99975.42;;;24.18;75.66
42951;BME280;28592;51.064;17.192;2022-09-09T11:17:58;99981.47;;;24.31;75.21
42951;BME280;28592;51.064;17.192;2022-09-09T11:20:34;99985.58;;;24.34;75.78
42951;BME280;28592;51.064;17.192;2022-09-09T11:23:28;99983.94;;;24.33;75.79
42951;BME280;28592;51.064;17.192;2022-09-09T11:26:32;99996.80;;;24.78;69.93
42951;BME280;28592;51.064;17.192;2022-09-09T11:32:25;99993.32;;;25.35;73.02
42951;BME280;28592;51.064;17.192;2022-09-09T11:35:24;99984.34;;;25.35;72.93
42951;BME280;28592;51.064;17.192;2022-09-09T11:41:09;99982.20;;;25.48;73.42
42951;BME280;28592;51.064;17.192;2022-09-09T11:43:56;99982.80;;;24.93;72.14
42951;BME280;28592;51.064;17.192;2022-09-09T11:46:46;99975.59;;;24.34;75.84
42951;BME280;28592;51.064;17.192;2022-09-09T11:49:41;99971.47;;;24.32;75.98
42951;BME280;28592;51.064;17.192;2022-09-09T11:52:39;99981.75;;;24.11;74.42
42951;BME280;28592;51.064;17.192;2022-09-09T11:55:30;99981.98;;;24.10;74.48
42951;BME280;28592;51.064;17.192;2022-09-09T11:58:18;99986.09;;;24.83;75.42
42951;BME280;28592;51.064;17.192;2022-09-09T12:01:15;99980.23;;;25.83;71.40
42951;BME280;28592;51.064;17.192;2022-09-09T12:04:09;99981.55;;;25.81;70.59
42951;BME280;28592;51.064;17.192;2022-09-09T12:07:01;99983.31;;;26.15;71.73
42951;BME280;28592;51.064;17.192;2022-09-09T12:09:53;99979.80;;;26.15;71.87
42951;BME280;28592;51.064;17.192;2022-09-09T12:12:41;99975.64;;;26.40;69.35
42951;BME280;28592;51.064;17.192;2022-09-09T12:15:28;99972.61;;;25.69;69.81
42951;BME280;28592;51.064;17.192;2022-09-09T12:18:23;99970.98;;;25.96;73.90
42951;BME280;28592;51.064;17.192;2022-09-09T12:24:15;99955.39;;;26.03;71.32
42951;BME280;28592;51.064;17.192;2022-09-09T12:30:08;99967.39;;;26.35;67.75
42951;BME280;28592;51.064;17.192;2022-09-09T12:33:08;99953.17;;;26.61;67.61
42951;BME280;28592;51.064;17.192;2022-09-09T12:35:55;99957.42;;;27.23;67.06
42951;BME280;28592;51.064;17.192;2022-09-09T12:38:43;99959.52;;;27.16;67.92
42951;BME280;28592;51.064;17.192;2022-09-09T12:41:29;99956.80;;;27.16;67.76
42951;BME280;28592;51.064;17.192;2022-09-09T12:44:14;99966.48;;;26.91;67.83
42951;BME280;28592;51.064;17.192;2022-09-09T12:47:02;99959.08;;;27.41;65.15
42951;BME280;28592;51.064;17.192;2022-09-09T12:49:49;99965.09;;;27.65;69.01
42951;BME280;28592;51.064;17.192;2022-09-09T12:52:36;99967.76;;;27.05;64.42
42951;BME280;28592;51.064;17.192;2022-09-09T12:55:28;99969.67;;;27.04;64.49
42951;BME280;28592;51.064;17.192;2022-09-09T12:58:17;99984.16;;;27.26;65.56
42951;BME280;28592;51.064;17.192;2022-09-09T13:01:05;99969.17;;;27.07;68.17
42951;BME280;28592;51.064;17.192;2022-09-09T13:03:52;99967.51;;;27.06;67.93
42951;BME280;28592;51.064;17.192;2022-09-09T13:06:38;99949.81;;;26.54;67.41
42951;BME280;28592;51.064;17.192;2022-09-09T13:09:24;99965.17;;;26.04;66.61
42951;BME280;28592;51.064;17.192;2022-09-09T13:12:18;99966.88;;;26.22;69.16
42951;BME280;28592;51.064;17.192;2022-09-09T13:15:12;99964.91;;;25.77;67.71
42951;BME280;28592;51.064;17.192;2022-09-09T13:18:05;99953.61;;;25.97;67.93
42951;BME280;28592;51.064;17.192;2022-09-09T13:20:53;99946.55;;;25.96;67.65
42951;BME280;28592;51.064;17.192;2022-09-09T13:23:39;99946.25;;;26.37;66.58
42951;BME280;28592;51.064;17.192;2022-09-09T13:26:26;99933.20;;;26.23;66.51
42951;BME280;28592;51.064;17.192;2022-09-09T13:29:18;99931.92;;;26.58;67.46
42951;BME280;28592;51.064;17.192;2022-09-09T13:32:05;99931.80;;;26.65;65.70
42951;BME280;28592;51.064;17.192;2022-09-09T13:34:57;99933.42;;;26.82;69.27
42951;BME280;28592;51.064;17.192;2022-09-09T13:37:43;99940.03;;;26.86;71.57
42951;BME280;28592;51.064;17.192;2022-09-09T13:40:31;99932.91;;;26.52;67.05
42951;BME280;28592;51.064;17.192;2022-09-09T13:43:21;99934.63;;;26.25;69.09
42951;BME280;28592;51.064;17.192;2022-09-09T13:54:56;99913.29;;;26.17;71.44
42951;BME280;28592;51.064;17.192;2022-09-09T13:57:53;99907.22;;;26.60;72.18
42951;BME280;28592;51.064;17.192;2022-09-09T14:00:39;99906.62;;;26.58;72.11
42951;BME280;28592;51.064;17.192;2022-09-09T14:03:24;99910.34;;;27.23;67.63
42951;BME280;28592;51.064;17.192;2022-09-09T14:06:11;99906.03;;;27.87;65.74
42951;BME280;28592;51.064;17.192;2022-09-09T14:08:56;99913.02;;;27.83;66.08
42951;BME280;28592;51.064;17.192;2022-09-09T14:11:42;99905.93;;;27.82;65.72
42951;BME280;28592;51.064;17.192;2022-09-09T14:14:27;99917.42;;;27.62;65.94
42951;BME280;28592;51.064;17.192;2022-09-09T14:17:13;99914.40;;;27.20;67.79
42951;BME280;28592;51.064;17.192;2022-09-09T14:19:59;99907.63;;;27.39;64.16
42951;BME280;28592;51.064;17.192;2022-09-09T14:22:47;99919.59;;;26.06;69.52
42951;BME280;28592;51.064;17.192;2022-09-09T14:25:33;99920.67;;;26.05;69.56
42951;BME280;28592;51.064;17.192;2022-09-09T14:28:18;99925.06;;;26.39;69.05
42951;BME280;28592;51.064;17.192;2022-09-09T14:31:04;99928.09;;;26.10;70.71
42951;BME280;28592;51.064;17.192;2022-09-09T14:33:50;99922.11;;;25.96;75.37
42951;BME280;28592;51.064;17.192;2022-09-09T14:36:35;99922.79;;;25.75;76.59
42951;BME280;28592;51.064;17.192;2022-09-09T14:39:21;99919.48;;;25.73;76.62
42951;BME280;28592;51.064;17.192;2022-09-09T14:42:07;99917.72;;;25.95;75.19
42951;BME280;28592;51.064;17.192;2022-09-09T14:44:56;99913.92;;;25.79;78.81
42951;BME280;28592;51.064;17.192;2022-09-09T14:47:41;99907.55;;;25.74;77.12
42951;BME280;28592;51.064;17.192;2022-09-09T14:50:27;99907.55;;;25.74;77.33
42951;BME280;28592;51.064;17.192;2022-09-09T14:53:16;99919.21;;;26.14;76.32
42951;BME280;28592;51.064;17.192;2022-09-09T14:56:09;99912.77;;;26.04;77.48
42951;BME280;28592;51.064;17.192;2022-09-09T14:58:57;99901.52;;;26.12;73.92
42951;BME280;28592;51.064;17.192;2022-09-09T15:01:43;99907.86;;;26.17;73.14
42951;BME280;28592;51.064;17.192;2022-09-09T15:04:28;99900.45;;;26.29;75.87
42951;BME280;28592;51.064;17.192;2022-09-09T15:07:14;99899.61;;;26.12;75.59
42951;BME280;28592;51.064;17.192;2022-09-09T15:09:59;99897.97;;;26.11;75.49
42951;BME280;28592;51.064;17.192;2022-09-09T15:12:45;99892.46;;;26.39;74.23
42951;BME280;28592;51.064;17.192;2022-09-09T15:15:30;99890.92;;;26.43;72.21
42951;BME280;28592;51.064;17.192;2022-09-09T15:18:15;99884.89;;;26.41;73.25
42951;BME280;28592;51.064;17.192;2022-09-09T15:21:00;99888.94;;;26.39;74.66
42951;BME280;28592;51.064;17.192;2022-09-09T15:23:50;99888.11;;;26.38;74.53
42951;BME280;28592;51.064;17.192;2022-09-09T15:26:37;99884.06;;;26.41;76.28
42951;BME280;28592;51.064;17.192;2022-09-09T15:29:24;99887.52;;;26.36;74.69
42951;BME280;28592;51.064;17.192;2022-09-09T15:32:09;99884.31;;;26.39;76.01
42951;BME280;28592;51.064;17.192;2022-09-09T15:34:54;99880.80;;;26.39;76.02
42951;BME280;28592;51.064;17.192;2022-09-09T15:37:40;99884.16;;;26.46;74.83
42951;BME280;28592;51.064;17.192;2022-09-09T15:40:25;99880.94;;;26.49;74.40
42951;BME280;28592;51.064;17.192;2022-09-09T15:43:10;99882.11;;;26.53;75.18
42951;BME280;28592;51.064;17.192;2022-09-09T15:46:02;99878.56;;;26.52;74.99
42951;BME280;28592;51.064;17.192;2022-09-09T15:48:49;99891.65;;;25.94;74.55
42951;BME280;28592;51.064;17.192;2022-09-09T15:51:36;99893.59;;;25.82;75.44
42951;BME280;28592;51.064;17.192;2022-09-09T15:54:23;99899.78;;;25.66;76.41
42951;BME280;28592;51.064;17.192;2022-09-09T15:57:11;99891.64;;;25.66;76.25
42951;BME280;28592;51.064;17.192;2022-09-09T15:59:57;99898.57;;;25.45;76.27
42951;BME280;28592;51.064;17.192;2022-09-09T16:02:45;99888.31;;;25.47;76.50
42951;BME280;28592;51.064;17.192;2022-09-09T16:05:32;99883.94;;;25.46;76.63
42951;BME280;28592;51.064;17.192;2022-09-09T16:08:18;99899.66;;;25.33;76.21
42951;BME280;28592;51.064;17.192;2022-09-09T16:11:10;99880.80;;;25.15;76.78
42951;BME280;28592;51.064;17.192;2022-09-09T16:13:59;99880.33;;;25.18;79.88
42951;BME280;28592;51.064;17.192;2022-09-09T16:16:45;99879.41;;;25.12;77.77
42951;BME280;28592;51.064;17.192;2022-09-09T16:19:32;99873.98;;;25.12;77.77
42951;BME280;28592;51.064;17.192;2022-09-09T16:22:19;99883.88;;;25.07;79.29
42951;BME280;28592;51.064;17.192;2022-09-09T16:25:08;99882.62;;;24.86;81.52
42951;BME280;28592;51.064;17.192;2022-09-09T16:27:54;99897.92;;;24.81;81.77
42951;BME280;28592;51.064;17.192;2022-09-09T16:30:45;99906.42;;;24.73;84.87
42951;BME280;28592;51.064;17.192;2022-09-09T16:33:30;99902.13;;;24.54;86.10
42951;BME280;28592;51.064;17.192;2022-09-09T16:36:20;99899.50;;;23.94;88.67
42951;BME280;28592;51.064;17.192;2022-09-09T16:39:11;99896.66;;;23.89;89.73